Ghardaia, Algeria
Current Conditions -  °F | °C
As of 5:00 PM on Thursday 18 Dec 2014 (Local Time) from DAUG Reporting Station
Scattered Clouds Scattered Clouds  
Wind Chill: 63°   Ceiling: Unl
Heat Index: 63°   Visibility: 6mi
Dew Point: 28°   Wind: 12mph
Humidity: 27%   Direction: 310°NW
Pressure: 30.21"   Gusts: NA
Location:  32.49°N, 3.68°E
Report Text: DAUG 181600Z 31010KT 9999 FEW046 SCT100 17/M02 Q1023
Loading
Personal Weather Stations






























Interactive Weather Map New forecast layout! Learn more

10-Day Weather Forecast

Advertisements
Track Severe Weather on mobile